This is the latest recevied weather packets stored in our database for station/object WA4TPR. If no packets are shown the sender has not sent any weather packets the latest 10 day(s).
| Time | Temp. | Humidity | Pressure | Rain* | Wind** | Luminosity | Snow |
|---|---|---|---|---|---|---|---|
| 1777222869 | 29.44° C | 65% | 1015.2 hPa | 0 mm | - | 897 W/m² | - |
| 1777222566 | 30° C | 64% | 1015.2 hPa | 0 mm | - | 929 W/m² | - |
| 1777222263 | 28.89° C | 64% | 1015.5 hPa | 0 mm | - | 880 W/m² | - |
| 1777221962 | 28.89° C | 65% | 1015.5 hPa | 0 mm | - | 895 W/m² | - |
| 1777221656 | 28.33° C | 68% | 1015.5 hPa | 0 mm | - | 902 W/m² | - |
| 1777221353 | 28.89° C | 67% | 1015.4 hPa | 0 mm | - | 939 W/m² | - |
| 1777221051 | 28.33° C | 65% | 1015.6 hPa | 0 mm | - | 845 W/m² | - |
| 1777220750 | 28.89° C | 69% | 1015.6 hPa | 0 mm | - | 165 W/m² | - |
| 1777220447 | 28.89° C | 67% | 1015.6 hPa | 0 mm | - | 855 W/m² | - |
| 1777220147 | 27.78° C | 71% | 1015.9 hPa | 0 mm | - | 832 W/m² | - |
| 1777219844 | 28.33° C | 71% | 1015.9 hPa | 0 mm | - | 152 W/m² | - |
| 1777219541 | 27.78° C | 70% | 1016 hPa | 0 mm | - | 615 W/m² | - |
| 1777219238 | 28.33° C | 71% | 1015.9 hPa | 0 mm | - | 178 W/m² | - |
| 1777218933 | 27.78° C | 72% | 1016 hPa | 0 mm | - | 797 W/m² | - |
| 1777218630 | 28.89° C | 71% | 1016.3 hPa | 0 mm | - | 172 W/m² | - |
| 1777218324 | 27.78° C | 69% | 1016.1 hPa | 0 mm | - | 849 W/m² | - |
| 1777218022 | 27.78° C | 69% | 1016.2 hPa | 0 mm | - | 317 W/m² | - |
| 1777217717 | 27.22° C | 71% | 1016.1 hPa | 0 mm | - | 760 W/m² | - |
| 1777217413 | 27.78° C | 73% | 1016.2 hPa | 0 mm | - | 739 W/m² | - |
| 1777217110 | 27.22° C | 73% | 1016.2 hPa | 0 mm | - | 787 W/m² | - |
| 1777216805 | 27.22° C | 74% | 1016.4 hPa | 0 mm | - | 712 W/m² | - |
| 1777216502 | 27.22° C | 76% | 1016.3 hPa | 0 mm | - | 711 W/m² | - |
| 1777216197 | 26.67° C | 76% | 1016.4 hPa | 0 mm | - | 696 W/m² | - |
| 1777215891 | 27.22° C | 76% | 1016.2 hPa | 0 mm | - | 657 W/m² | - |
| 1777215586 | 27.22° C | 76% | 1016.3 hPa | 0 mm | - | 669 W/m² | - |
* Rain latest hour (hover to see other rain measurements)
** Current wind speed in m/s (hover to see current wind gust speed)